createdAt,value
2023-05-05T00:04:20.936Z,9.67
2023-05-05T00:09:20.842Z,9.75
2023-05-05T00:14:20.811Z,9.56
2023-05-05T00:19:20.677Z,9.43
2023-05-05T00:24:20.640Z,9.20
2023-05-05T00:29:20.501Z,9.12
2023-05-05T00:34:21.190Z,8.90
2023-05-05T00:39:20.481Z,8.91
2023-05-05T00:44:20.610Z,9.06
2023-05-05T00:49:20.480Z,8.93
2023-05-05T00:54:23.524Z,9.06
2023-05-05T00:59:20.285Z,8.81
2023-05-05T01:04:20.311Z,8.84
2023-05-05T01:09:19.999Z,8.68
2023-05-05T01:14:20.009Z,8.62
2023-05-05T01:19:19.835Z,8.50
2023-05-05T01:24:19.880Z,8.51
2023-05-05T01:29:19.739Z,8.75
2023-05-05T01:34:19.764Z,8.76
2023-05-05T01:39:19.808Z,8.72
2023-05-05T01:44:20.096Z,8.96
2023-05-05T01:49:19.454Z,9.15
2023-05-05T01:54:22.421Z,9.05
2023-05-05T01:59:19.327Z,8.65
2023-05-05T02:04:19.285Z,8.86
2023-05-05T02:09:19.189Z,9.01
2023-05-05T02:14:19.184Z,8.91
2023-05-05T02:19:19.255Z,8.60
2023-05-05T02:24:19.070Z,8.26
2023-05-05T02:29:18.928Z,8.11
2023-05-05T02:34:18.895Z,8.18
2023-05-05T02:39:18.966Z,8.48
2023-05-05T02:44:18.766Z,8.14
2023-05-05T02:49:18.672Z,8.48
2023-05-05T02:54:22.086Z,8.39
2023-05-05T02:59:18.530Z,7.77
2023-05-05T03:04:18.538Z,7.89
2023-05-05T03:09:18.458Z,7.94
2023-05-05T03:14:18.413Z,7.84
2023-05-05T03:19:18.288Z,7.96
2023-05-05T03:24:18.343Z,8.28
2023-05-05T03:29:18.279Z,8.26
2023-05-05T03:34:18.128Z,8.40
2023-05-05T03:39:18.179Z,8.42
2023-05-05T03:44:18.001Z,8.42
2023-05-05T03:49:17.877Z,8.63
2023-05-05T03:54:20.910Z,8.71
2023-05-05T03:59:17.859Z,8.69
2023-05-05T04:04:17.785Z,9.02
2023-05-05T04:09:17.637Z,9.04
2023-05-05T04:14:18.088Z,8.93
2023-05-05T04:19:17.600Z,9.06
2023-05-05T04:24:17.472Z,9.10
2023-05-05T04:29:17.539Z,9.61
2023-05-05T04:34:17.389Z,10.10
2023-05-05T04:39:17.265Z,10.68
2023-05-05T04:44:17.199Z,11.03
2023-05-05T04:49:17.113Z,12.77
2023-05-05T04:54:20.474Z,14.12
2023-05-05T04:59:16.952Z,14.99
2023-05-05T05:04:17.065Z,16.30
2023-05-05T05:09:16.892Z,17.18
2023-05-05T05:14:16.840Z,17.23
2023-05-05T05:19:16.805Z,17.33
2023-05-05T05:24:17.639Z,17.06
2023-05-05T05:29:16.806Z,18.29
2023-05-05T05:34:16.530Z,19.13
2023-05-05T05:39:16.512Z,17.71
2023-05-05T05:44:16.598Z,18.67
2023-05-05T05:49:16.533Z,16.93
2023-05-05T05:54:19.256Z,18.83
2023-05-05T05:59:16.203Z,19.35
2023-05-05T06:04:16.415Z,19.47
2023-05-05T06:09:16.083Z,20.25
2023-05-05T06:14:18.013Z,20.46
2023-05-05T06:19:16.065Z,20.96
2023-05-05T06:24:16.219Z,21.85
2023-05-05T06:29:15.808Z,22.02
2023-05-05T06:34:16.515Z,22.25
2023-05-05T06:39:16.241Z,22.67
2023-05-05T06:44:15.792Z,23.64
2023-05-05T06:49:15.538Z,21.36
2023-05-05T06:54:18.624Z,22.71
2023-05-05T06:59:15.545Z,23.80
2023-05-05T07:04:15.570Z,25.12
2023-05-05T07:09:16.996Z,24.80
2023-05-05T07:14:15.569Z,23.04
2023-05-05T07:19:15.262Z,26.02
2023-05-05T07:24:15.391Z,27.32
2023-05-05T07:29:15.093Z,27.85
2023-05-05T07:34:15.263Z,28.31
2023-05-05T07:39:14.992Z,29.13
2023-05-05T07:44:14.945Z,29.03
2023-05-05T07:49:14.877Z,29.44
2023-05-05T07:54:18.008Z,27.96
2023-05-05T07:59:14.745Z,27.70
2023-05-05T08:04:14.912Z,26.52
2023-05-05T08:09:14.797Z,25.61
2023-05-05T08:14:14.900Z,24.13
2023-05-05T08:19:27.616Z,22.49
2023-05-05T08:24:15.658Z,22.37
2023-05-05T08:29:14.475Z,22.86
2023-05-05T08:34:14.453Z,22.86
2023-05-05T08:39:14.319Z,23.42
2023-05-05T08:44:14.406Z,23.67
2023-05-05T08:49:14.108Z,23.79
2023-05-05T08:54:17.232Z,24.02
2023-05-05T08:59:14.121Z,24.12
2023-05-05T09:04:13.917Z,24.59
2023-05-05T09:09:13.923Z,24.20
2023-05-05T09:14:13.899Z,23.43
2023-05-05T09:19:13.961Z,23.47
2023-05-05T09:24:13.586Z,24.02
2023-05-05T09:29:13.622Z,24.34
2023-05-05T09:34:13.600Z,25.01
2023-05-05T09:39:13.365Z,24.39
2023-05-05T09:44:13.544Z,25.35
2023-05-05T09:49:13.246Z,25.90
2023-05-05T09:54:16.269Z,26.21
2023-05-05T09:59:13.121Z,25.87
2023-05-05T10:04:13.120Z,26.31
2023-05-05T10:09:13.005Z,26.68
2023-05-05T10:14:12.954Z,26.84
2023-05-05T10:19:12.929Z,26.81
2023-05-05T10:24:12.821Z,25.83
2023-05-05T10:29:12.782Z,26.57
2023-05-05T10:34:12.831Z,25.97
2023-05-05T10:39:12.719Z,26.20
2023-05-05T10:44:12.714Z,26.57
2023-05-05T10:49:13.456Z,26.65
2023-05-05T10:54:15.517Z,26.55
2023-05-05T10:59:12.348Z,26.83
2023-05-05T11:04:12.333Z,27.74
2023-05-05T11:09:12.290Z,27.73
2023-05-05T11:14:12.871Z,27.84
2023-05-05T11:19:12.165Z,28.35
2023-05-05T11:24:12.086Z,28.25
2023-05-05T11:29:11.957Z,27.74
2023-05-05T11:34:11.938Z,26.73
2023-05-05T11:39:11.849Z,27.33
2023-05-05T11:44:11.886Z,27.20
2023-05-05T11:49:11.722Z,26.86
2023-05-05T11:54:14.745Z,27.35
2023-05-05T11:59:11.607Z,27.02
2023-05-05T12:04:11.831Z,27.14
2023-05-05T12:09:11.469Z,26.81
2023-05-05T12:14:11.490Z,28.16
2023-05-05T12:19:11.287Z,28.51
2023-05-05T12:24:11.518Z,28.22
2023-05-05T12:29:11.180Z,27.50
2023-05-05T12:34:11.215Z,26.17
2023-05-05T12:39:11.045Z,26.46
2023-05-05T12:44:11.118Z,26.36
2023-05-05T12:49:11.143Z,26.08
2023-05-05T12:54:13.986Z,26.61
2023-05-05T12:59:10.792Z,26.52
2023-05-05T13:04:10.962Z,26.35
2023-05-05T13:09:10.687Z,26.15
2023-05-05T13:14:10.771Z,25.97
2023-05-05T13:19:10.659Z,25.89
2023-05-05T13:24:22.900Z,25.93
2023-05-05T13:29:11.586Z,25.89
2023-05-05T13:34:10.493Z,25.86
2023-05-05T13:39:10.309Z,25.91
2023-05-05T13:44:10.196Z,25.71
2023-05-05T13:49:10.237Z,25.89
2023-05-05T13:54:13.121Z,25.34
2023-05-05T13:59:10.136Z,25.54
2023-05-05T14:04:10.139Z,25.12
2023-05-05T14:09:09.902Z,25.57
2023-05-05T14:14:10.022Z,25.32
2023-05-05T14:19:10.003Z,25.37
2023-05-05T14:24:09.708Z,25.64
2023-05-05T14:29:09.758Z,25.54
2023-05-05T14:34:09.632Z,25.05
2023-05-05T14:39:09.529Z,24.79
2023-05-05T14:44:09.537Z,24.87
2023-05-05T14:49:09.465Z,25.27
2023-05-05T14:54:26.994Z,24.90
2023-05-05T14:59:10.436Z,24.68
2023-05-05T15:04:09.240Z,25.25
2023-05-05T15:09:09.093Z,24.71
2023-05-05T15:14:09.227Z,25.37
2023-05-05T15:19:09.038Z,25.49
2023-05-05T15:24:09.000Z,25.05
2023-05-05T15:29:08.904Z,25.12
2023-05-05T15:34:08.866Z,25.61
2023-05-05T15:39:08.705Z,25.61
2023-05-05T15:44:08.795Z,25.71
2023-05-05T15:49:08.733Z,25.59
2023-05-05T15:54:11.574Z,24.67
2023-05-05T15:59:08.490Z,24.82
2023-05-05T16:04:08.501Z,23.79
2023-05-05T16:09:08.331Z,24.13
2023-05-05T16:14:08.431Z,24.52
2023-05-05T16:19:08.203Z,24.77
2023-05-05T16:24:08.245Z,24.22
2023-05-05T16:29:08.075Z,23.61
2023-05-05T16:34:08.143Z,23.82
2023-05-05T16:39:08.165Z,24.12
2023-05-05T16:44:07.889Z,23.43
2023-05-05T16:49:07.836Z,23.46
2023-05-05T16:54:10.900Z,23.14
2023-05-05T16:59:07.676Z,23.32
2023-05-05T17:04:07.752Z,23.65
2023-05-05T17:09:07.550Z,24.10
2023-05-05T17:14:07.499Z,24.17
2023-05-05T17:19:07.470Z,24.14
2023-05-05T17:24:07.501Z,23.94
2023-05-05T17:29:07.316Z,23.22
2023-05-05T17:34:07.281Z,22.89
2023-05-05T17:39:07.182Z,23.08
2023-05-05T17:44:07.272Z,23.20
2023-05-05T17:49:06.995Z,22.82
2023-05-05T17:54:10.090Z,22.37
2023-05-05T17:59:07.099Z,22.27
2023-05-05T18:04:06.996Z,22.22
2023-05-05T18:09:07.277Z,21.99
2023-05-05T18:14:06.784Z,21.35
2023-05-05T18:19:06.714Z,21.35
2023-05-05T18:24:18.690Z,21.20
2023-05-05T18:29:07.626Z,20.30
2023-05-05T18:34:06.405Z,19.86
2023-05-05T18:39:06.414Z,19.53
2023-05-05T18:44:06.328Z,19.39
2023-05-05T18:49:06.971Z,18.90
2023-05-05T18:54:09.307Z,17.66
2023-05-05T18:59:06.067Z,16.78
2023-05-05T19:04:15.629Z,16.33
2023-05-05T19:09:07.260Z,16.20
2023-05-05T19:14:05.911Z,16.04
2023-05-05T19:19:05.843Z,16.25
2023-05-05T19:24:05.925Z,16.63
2023-05-05T19:29:05.769Z,16.45
2023-05-05T19:34:05.626Z,16.56
2023-05-05T19:39:05.708Z,16.41
2023-05-05T19:44:05.602Z,16.20
2023-05-05T19:49:05.552Z,16.49
2023-05-05T19:54:08.533Z,16.23
2023-05-05T19:59:05.345Z,16.07
2023-05-05T20:04:05.321Z,16.25
2023-05-05T20:09:05.379Z,16.45
2023-05-05T20:14:05.243Z,16.41
2023-05-05T20:19:05.175Z,16.41
2023-05-05T20:24:05.131Z,16.60
2023-05-05T20:29:04.931Z,16.50
2023-05-05T20:34:04.914Z,16.49
2023-05-05T20:39:04.794Z,16.52
2023-05-05T20:44:04.782Z,16.59
2023-05-05T20:49:04.819Z,16.52
2023-05-05T20:54:07.672Z,16.60
2023-05-05T20:59:04.502Z,16.20
2023-05-05T21:04:05.079Z,16.18
2023-05-05T21:09:04.358Z,16.15
2023-05-05T21:14:04.572Z,16.41
2023-05-05T21:19:04.375Z,16.22
2023-05-05T21:24:05.575Z,16.30
2023-05-05T21:29:04.108Z,16.00
2023-05-05T21:34:04.064Z,15.84
2023-05-05T21:39:04.056Z,15.84
2023-05-05T21:44:03.970Z,16.04
2023-05-05T21:49:03.868Z,16.09
2023-05-05T21:54:06.979Z,16.00
2023-05-05T21:59:03.777Z,15.75
2023-05-05T22:04:03.932Z,15.86
2023-05-05T22:09:03.578Z,15.79
2023-05-05T22:14:03.563Z,15.56
2023-05-05T22:19:03.443Z,15.76
2023-05-05T22:24:03.552Z,15.89
2023-05-05T22:29:03.419Z,16.07
2023-05-05T22:34:03.293Z,16.04
2023-05-05T22:39:03.710Z,16.00
2023-05-05T22:44:03.293Z,15.99
2023-05-05T22:49:03.135Z,16.00
2023-05-05T22:54:06.063Z,16.00
2023-05-05T22:59:03.040Z,15.49
2023-05-05T23:04:02.924Z,15.88
2023-05-05T23:09:02.859Z,15.78
2023-05-05T23:14:02.786Z,15.85
2023-05-05T23:19:02.723Z,15.81
2023-05-05T23:24:02.644Z,15.61
2023-05-05T23:29:02.538Z,15.82
2023-05-05T23:34:03.200Z,15.85
2023-05-05T23:39:02.386Z,15.93
2023-05-05T23:44:02.354Z,15.70
2023-05-05T23:49:02.349Z,15.79
2023-05-05T23:54:05.233Z,15.63
2023-05-05T23:59:02.219Z,15.30
